sensor_id;sensor_type;location;lat;lon;timestamp;pressure;altitude;pressure_sealevel;temperature;humidity
76024;BME280;64719;52.124;6.226;2023-03-14T09:06:07;99324.66;;;6.97;98.41
76024;BME280;64719;52.124;6.226;2023-03-14T09:08:33;99335.28;;;7.59;96.65
76024;BME280;64719;52.124;6.226;2023-03-14T09:11:00;99357.75;;;7.26;93.28
76024;BME280;64719;52.124;6.226;2023-03-14T09:13:26;99364.09;;;7.53;93.57
76024;BME280;64719;52.124;6.226;2023-03-14T09:15:53;99378.53;;;7.64;90.98
76024;BME280;64719;52.124;6.226;2023-03-14T09:18:20;99388.63;;;7.35;91.64
76024;BME280;64719;52.124;6.226;2023-03-14T09:20:47;99393.50;;;7.71;91.13
76024;BME280;64719;52.124;6.226;2023-03-14T09:23:15;99404.16;;;7.28;90.94
76024;BME280;64719;52.124;6.226;2023-03-14T09:25:42;99428.81;;;6.87;92.15
76024;BME280;64719;52.124;6.226;2023-03-14T09:28:08;99444.47;;;7.34;92.98
76024;BME280;64719;52.124;6.226;2023-03-14T09:30:35;99465.66;;;7.76;90.59
76024;BME280;64719;52.124;6.226;2023-03-14T09:33:01;99468.41;;;7.47;89.04
76024;BME280;64719;52.124;6.226;2023-03-14T09:35:29;99473.78;;;8.14;87.57
76024;BME280;64719;52.124;6.226;2023-03-14T09:37:55;99478.78;;;8.65;86.21
76024;BME280;64719;52.124;6.226;2023-03-14T09:40:23;99476.22;;;8.15;86.84
76024;BME280;64719;52.124;6.226;2023-03-14T09:42:51;99495.00;;;7.89;84.94
76024;BME280;64719;52.124;6.226;2023-03-14T09:45:24;99499.91;;;8.46;86.76
76024;BME280;64719;52.124;6.226;2023-03-14T09:47:52;99510.56;;;9.01;83.93
76024;BME280;64719;52.124;6.226;2023-03-14T09:50:20;99522.25;;;8.80;83.01
76024;BME280;64719;52.124;6.226;2023-03-14T09:52:48;99514.38;;;9.00;83.80
76024;BME280;64719;52.124;6.226;2023-03-14T09:55:19;99546.19;;;8.50;82.36
76024;BME280;64719;52.124;6.226;2023-03-14T09:57:50;99552.13;;;8.30;81.04
76024;BME280;64719;52.124;6.226;2023-03-14T10:00:22;99562.06;;;9.06;81.14
76024;BME280;64719;52.124;6.226;2023-03-14T10:02:52;99576.19;;;8.70;82.98
76024;BME280;64719;52.124;6.226;2023-03-14T10:05:23;99596.94;;;7.65;83.35
76024;BME280;64719;52.124;6.226;2023-03-14T10:07:50;99595.91;;;8.16;85.42
76024;BME280;64719;52.124;6.226;2023-03-14T10:10:18;99612.22;;;9.67;80.16
76024;BME280;64719;52.124;6.226;2023-03-14T10:12:46;99613.25;;;10.14;76.46
76024;BME280;64719;52.124;6.226;2023-03-14T10:15:15;99620.44;;;10.71;71.71
76024;BME280;64719;52.124;6.226;2023-03-14T10:17:50;99622.19;;;10.92;73.46
76024;BME280;64719;52.124;6.226;2023-03-14T10:20:37;99649.88;;;9.20;78.27
76024;BME280;64719;52.124;6.226;2023-03-14T10:23:06;99652.31;;;9.65;77.88
76024;BME280;64719;52.124;6.226;2023-03-14T10:25:35;99666.69;;;10.18;76.79
76024;BME280;64719;52.124;6.226;2023-03-14T10:28:03;99671.16;;;9.33;76.86
76024;BME280;64719;52.124;6.226;2023-03-14T10:30:34;99684.09;;;9.74;74.37
76024;BME280;64719;52.124;6.226;2023-03-14T10:33:10;99686.97;;;10.79;71.70
76024;BME280;64719;52.124;6.226;2023-03-14T10:35:37;99695.19;;;10.94;69.04
76024;BME280;64719;52.124;6.226;2023-03-14T10:38:04;99698.63;;;10.43;70.07
76024;BME280;64719;52.124;6.226;2023-03-14T10:40:31;99718.38;;;9.20;72.56
76024;BME280;64719;52.124;6.226;2023-03-14T10:42:59;99730.31;;;9.24;75.23
76024;BME280;64719;52.124;6.226;2023-03-14T10:45:36;99746.69;;;9.13;77.15
76024;BME280;64719;52.124;6.226;2023-03-14T10:48:19;99761.47;;;8.39;77.46
76024;BME280;64719;52.124;6.226;2023-03-14T10:50:53;99773.41;;;7.87;81.88
76024;BME280;64719;52.124;6.226;2023-03-14T10:53:20;99788.50;;;7.72;84.39
76024;BME280;64719;52.124;6.226;2023-03-14T10:55:47;99790.19;;;8.17;83.97
76024;BME280;64719;52.124;6.226;2023-03-14T10:58:19;99801.56;;;9.47;79.16
76024;BME280;64719;52.124;6.226;2023-03-14T11:00:51;99812.50;;;9.95;75.39
76024;BME280;64719;52.124;6.226;2023-03-14T11:03:20;99818.44;;;12.43;67.98
76024;BME280;64719;52.124;6.226;2023-03-14T11:05:52;99831.91;;;9.87;74.22
76024;BME280;64719;52.124;6.226;2023-03-14T11:08:23;99844.94;;;8.52;74.66
76024;BME280;64719;52.124;6.226;2023-03-14T11:10:54;99857.69;;;8.85;77.19
76024;BME280;64719;52.124;6.226;2023-03-14T11:13:24;99866.38;;;8.87;76.36
76024;BME280;64719;52.124;6.226;2023-03-14T11:15:58;99875.88;;;8.89;74.70
76024;BME280;64719;52.124;6.226;2023-03-14T11:18:46;99879.50;;;9.61;72.21
76024;BME280;64719;52.124;6.226;2023-03-14T11:21:18;99889.63;;;9.32;72.71
76024;BME280;64719;52.124;6.226;2023-03-14T11:23:56;99906.94;;;9.86;75.11
76024;BME280;64719;52.124;6.226;2023-03-14T11:26:31;99916.03;;;9.97;74.66
76024;BME280;64719;52.124;6.226;2023-03-14T11:29:12;99916.16;;;8.58;77.88
76024;BME280;64719;52.124;6.226;2023-03-14T11:31:44;99930.19;;;8.43;79.70
76024;BME280;64719;52.124;6.226;2023-03-14T11:34:16;99948.19;;;9.22;78.32
76024;BME280;64719;52.124;6.226;2023-03-14T11:36:46;99945.81;;;9.25;73.33
76024;BME280;64719;52.124;6.226;2023-03-14T11:39:19;99947.72;;;10.77;71.61
76024;BME280;64719;52.124;6.226;2023-03-14T11:41:46;99952.38;;;12.08;63.96
76024;BME280;64719;52.124;6.226;2023-03-14T11:44:17;99959.91;;;11.01;65.32
76024;BME280;64719;52.124;6.226;2023-03-14T11:46:49;99968.34;;;10.14;67.67
76024;BME280;64719;52.124;6.226;2023-03-14T11:49:25;99985.59;;;10.46;67.50
76024;BME280;64719;52.124;6.226;2023-03-14T11:51:56;99982.81;;;14.04;60.65
76024;BME280;64719;52.124;6.226;2023-03-14T11:54:32;99981.50;;;15.72;50.65
76024;BME280;64719;52.124;6.226;2023-03-14T11:57:01;99994.53;;;12.06;59.33
76024;BME280;64719;52.124;6.226;2023-03-14T11:59:32;99999.69;;;13.16;55.95
76024;BME280;64719;52.124;6.226;2023-03-14T12:02:04;100006.16;;;14.70;49.10
76024;BME280;64719;52.124;6.226;2023-03-14T12:04:43;99995.03;;;11.13;53.76
76024;BME280;64719;52.124;6.226;2023-03-14T12:07:19;100009.44;;;11.98;53.37
76024;BME280;64719;52.124;6.226;2023-03-14T12:09:48;100015.28;;;12.68;49.95
76024;BME280;64719;52.124;6.226;2023-03-14T12:12:19;100032.94;;;14.58;46.85
76024;BME280;64719;52.124;6.226;2023-03-14T12:14:53;100041.53;;;17.44;39.90
76024;BME280;64719;52.124;6.226;2023-03-14T12:17:24;100043.59;;;17.10;36.35
76024;BME280;64719;52.124;6.226;2023-03-14T12:20:02;100050.19;;;13.73;45.05
76024;BME280;64719;52.124;6.226;2023-03-14T12:22:33;100061.19;;;16.28;38.86
76024;BME280;64719;52.124;6.226;2023-03-14T12:25:05;100064.91;;;18.10;37.87
76024;BME280;64719;52.124;6.226;2023-03-14T12:27:48;100075.78;;;18.66;31.62
76024;BME280;64719;52.124;6.226;2023-03-14T12:30:27;100088.00;;;19.14;30.18
76024;BME280;64719;52.124;6.226;2023-03-14T12:36:04;100075.06;;;19.55;28.11
76024;BME280;64719;52.124;6.226;2023-03-14T12:38:52;100111.63;;;19.15;31.23
76024;BME280;64719;52.124;6.226;2023-03-14T12:41:26;100110.13;;;15.04;35.28
76024;BME280;64719;52.124;6.226;2023-03-14T12:43:55;100123.03;;;14.73;37.92
76024;BME280;64719;52.124;6.226;2023-03-14T12:46:23;100125.72;;;13.68;39.63
76024;BME280;64719;52.124;6.226;2023-03-14T12:48:54;100125.78;;;14.23;36.84
76024;BME280;64719;52.124;6.226;2023-03-14T12:51:30;100130.06;;;17.86;32.29
76024;BME280;64719;52.124;6.226;2023-03-14T12:54:17;100135.47;;;18.93;29.16
76024;BME280;64719;52.124;6.226;2023-03-14T12:56:57;100140.97;;;17.73;29.94
76024;BME280;64719;52.124;6.226;2023-03-14T12:59:29;100137.16;;;18.62;28.05
76024;BME280;64719;52.124;6.226;2023-03-14T13:02:00;100147.00;;;19.62;26.69
76024;BME280;64719;52.124;6.226;2023-03-14T13:04:32;100161.25;;;19.91;26.01
76024;BME280;64719;52.124;6.226;2023-03-14T13:07:02;100164.41;;;19.85;27.59
76024;BME280;64719;52.124;6.226;2023-03-14T13:09:59;100176.16;;;18.27;27.44
76024;BME280;64719;52.124;6.226;2023-03-14T13:12:29;100168.88;;;19.00;27.77
76024;BME280;64719;52.124;6.226;2023-03-14T13:14:59;100180.03;;;19.76;27.57
76024;BME280;64719;52.124;6.226;2023-03-14T13:17:31;100193.44;;;19.10;28.01
76024;BME280;64719;52.124;6.226;2023-03-14T13:20:02;100202.38;;;19.34;27.10
76024;BME280;64719;52.124;6.226;2023-03-14T13:22:33;100205.06;;;20.73;24.36
76024;BME280;64719;52.124;6.226;2023-03-14T13:25:04;100208.03;;;17.43;26.44
76024;BME280;64719;52.124;6.226;2023-03-14T13:27:33;100221.97;;;18.31;26.40
76024;BME280;64719;52.124;6.226;2023-03-14T13:30:19;100229.63;;;19.17;26.45
76024;BME280;64719;52.124;6.226;2023-03-14T13:32:48;100247.31;;;16.38;25.78
76024;BME280;64719;52.124;6.226;2023-03-14T13:35:16;100255.22;;;18.30;26.09
76024;BME280;64719;52.124;6.226;2023-03-14T13:37:45;100267.50;;;14.54;31.34
76024;BME280;64719;52.124;6.226;2023-03-14T13:40:18;100261.94;;;13.48;34.64
76024;BME280;64719;52.124;6.226;2023-03-14T13:42:45;100280.59;;;17.79;28.21
76024;BME280;64719;52.124;6.226;2023-03-14T13:45:13;100286.88;;;14.58;31.34
76024;BME280;64719;52.124;6.226;2023-03-14T13:47:40;100285.56;;;16.09;31.14
76024;BME280;64719;52.124;6.226;2023-03-14T13:50:12;100286.91;;;16.07;29.68
76024;BME280;64719;52.124;6.226;2023-03-14T13:52:40;100296.47;;;17.02;28.77
76024;BME280;64719;52.124;6.226;2023-03-14T13:55:16;100309.28;;;17.92;28.01
76024;BME280;64719;52.124;6.226;2023-03-14T13:57:44;100313.78;;;18.67;27.79
76024;BME280;64719;52.124;6.226;2023-03-14T14:00:18;100313.06;;;17.15;23.93
76024;BME280;64719;52.124;6.226;2023-03-14T14:02:45;100330.31;;;17.16;25.46
76024;BME280;64719;52.124;6.226;2023-03-14T14:05:12;100332.25;;;18.99;22.45
76024;BME280;64719;52.124;6.226;2023-03-14T14:07:39;100347.66;;;17.45;24.51
76024;BME280;64719;52.124;6.226;2023-03-14T14:10:08;100371.31;;;17.64;23.94
76024;BME280;64719;52.124;6.226;2023-03-14T14:12:39;100358.19;;;15.82;26.53
76024;BME280;64719;52.124;6.226;2023-03-14T14:15:12;100371.63;;;15.58;27.86
76024;BME280;64719;52.124;6.226;2023-03-14T14:17:43;100388.31;;;17.33;25.00
76024;BME280;64719;52.124;6.226;2023-03-14T14:20:20;100382.13;;;17.84;23.18
76024;BME280;64719;52.124;6.226;2023-03-14T14:22:48;100410.69;;;18.31;23.58
76024;BME280;64719;52.124;6.226;2023-03-14T14:25:15;100403.00;;;16.75;25.42
76024;BME280;64719;52.124;6.226;2023-03-14T14:27:47;100403.66;;;17.34;24.50
76024;BME280;64719;52.124;6.226;2023-03-14T14:30:32;100422.72;;;15.83;27.01
76024;BME280;64719;52.124;6.226;2023-03-14T14:33:17;100438.56;;;13.82;28.89
76024;BME280;64719;52.124;6.226;2023-03-14T14:35:51;100435.03;;;12.92;31.63
76024;BME280;64719;52.124;6.226;2023-03-14T14:38:18;100432.06;;;12.24;32.27
76024;BME280;64719;52.124;6.226;2023-03-14T14:40:48;100439.72;;;11.89;33.46
76024;BME280;64719;52.124;6.226;2023-03-14T14:43:20;100451.84;;;13.37;31.30
76024;BME280;64719;52.124;6.226;2023-03-14T14:45:49;100455.59;;;14.46;30.19
76024;BME280;64719;52.124;6.226;2023-03-14T14:48:19;100453.72;;;11.48;35.07
76024;BME280;64719;52.124;6.226;2023-03-14T14:50:55;100466.53;;;10.35;40.45
76024;BME280;64719;52.124;6.226;2023-03-14T14:53:26;100473.97;;;9.70;41.88
76024;BME280;64719;52.124;6.226;2023-03-14T14:55:54;100471.41;;;9.11;41.68
76024;BME280;64719;52.124;6.226;2023-03-14T14:58:25;100480.50;;;9.16;40.75
76024;BME280;64719;52.124;6.226;2023-03-14T15:00:55;100496.34;;;9.01;41.10
76024;BME280;64719;52.124;6.226;2023-03-14T15:03:23;100494.38;;;8.61;40.89
76024;BME280;64719;52.124;6.226;2023-03-14T15:05:52;100502.88;;;8.28;42.03
76024;BME280;64719;52.124;6.226;2023-03-14T15:08:20;100512.56;;;8.54;42.46
76024;BME280;64719;52.124;6.226;2023-03-14T15:10:46;100516.97;;;8.84;42.65
76024;BME280;64719;52.124;6.226;2023-03-14T15:13:13;100513.00;;;8.69;41.87
76024;BME280;64719;52.124;6.226;2023-03-14T15:15:41;100520.69;;;8.11;43.65
76024;BME280;64719;52.124;6.226;2023-03-14T15:18:12;100514.88;;;7.72;44.66
76024;BME280;64719;52.124;6.226;2023-03-14T15:20:40;100540.41;;;7.69;45.16
76024;BME280;64719;52.124;6.226;2023-03-14T15:23:10;100537.09;;;7.42;45.26
76024;BME280;64719;52.124;6.226;2023-03-14T15:25:37;100543.25;;;7.56;46.22
76024;BME280;64719;52.124;6.226;2023-03-14T15:28:13;100536.28;;;7.42;47.01
76024;BME280;64719;52.124;6.226;2023-03-14T15:30:42;100545.53;;;7.53;46.50
76024;BME280;64719;52.124;6.226;2023-03-14T15:33:08;100557.00;;;7.48;47.37
76024;BME280;64719;52.124;6.226;2023-03-14T15:35:36;100557.22;;;7.46;46.81
76024;BME280;64719;52.124;6.226;2023-03-14T15:38:03;100573.00;;;7.43;47.24
76024;BME280;64719;52.124;6.226;2023-03-14T15:40:30;100567.75;;;7.55;47.60
76024;BME280;64719;52.124;6.226;2023-03-14T15:42:57;100583.63;;;7.69;47.45
76024;BME280;64719;52.124;6.226;2023-03-14T15:45:23;100593.44;;;7.64;47.24
76024;BME280;64719;52.124;6.226;2023-03-14T15:47:51;100588.38;;;7.74;47.75
76024;BME280;64719;52.124;6.226;2023-03-14T15:50:18;100589.41;;;7.41;48.31
76024;BME280;64719;52.124;6.226;2023-03-14T15:52:44;100587.97;;;7.45;47.84
76024;BME280;64719;52.124;6.226;2023-03-14T15:55:11;100598.44;;;7.60;46.99
76024;BME280;64719;52.124;6.226;2023-03-14T15:57:39;100599.66;;;7.64;48.69
76024;BME280;64719;52.124;6.226;2023-03-14T16:00:08;100614.38;;;7.37;48.64
76024;BME280;64719;52.124;6.226;2023-03-14T16:02:37;100617.28;;;7.35;49.29
76024;BME280;64719;52.124;6.226;2023-03-14T16:05:09;100629.53;;;7.38;50.15
76024;BME280;64719;52.124;6.226;2023-03-14T16:07:36;100624.81;;;7.27;50.21
76024;BME280;64719;52.124;6.226;2023-03-14T16:10:03;100643.63;;;7.40;51.14
76024;BME280;64719;52.124;6.226;2023-03-14T16:12:30;100646.72;;;7.43;51.67
76024;BME280;64719;52.124;6.226;2023-03-14T16:14:57;100655.50;;;7.32;50.95
76024;BME280;64719;52.124;6.226;2023-03-14T16:17:23;100653.97;;;7.49;51.60
76024;BME280;64719;52.124;6.226;2023-03-14T16:19:50;100663.31;;;7.47;52.29
76024;BME280;64719;52.124;6.226;2023-03-14T16:22:18;100667.78;;;7.22;52.06
76024;BME280;64719;52.124;6.226;2023-03-14T16:24:44;100669.47;;;7.16;52.86
76024;BME280;64719;52.124;6.226;2023-03-14T16:27:11;100681.19;;;6.97;53.56
76024;BME280;64719;52.124;6.226;2023-03-14T16:29:38;100689.28;;;6.84;52.80
76024;BME280;64719;52.124;6.226;2023-03-14T16:32:05;100687.44;;;6.78;51.85
76024;BME280;64719;52.124;6.226;2023-03-14T16:34:32;100689.53;;;6.70;52.05
76024;BME280;64719;52.124;6.226;2023-03-14T16:36:58;100688.91;;;6.68;51.77
76024;BME280;64719;52.124;6.226;2023-03-14T16:39:26;100703.88;;;6.64;53.02
76024;BME280;64719;52.124;6.226;2023-03-14T16:41:56;100702.41;;;6.48;50.82
76024;BME280;64719;52.124;6.226;2023-03-14T16:44:23;100700.75;;;6.34;49.96
76024;BME280;64719;52.124;6.226;2023-03-14T16:46:49;100710.09;;;6.32;51.19
76024;BME280;64719;52.124;6.226;2023-03-14T16:49:16;100713.00;;;6.24;53.25
76024;BME280;64719;52.124;6.226;2023-03-14T16:51:42;100726.47;;;6.11;52.26
76024;BME280;64719;52.124;6.226;2023-03-14T16:54:09;100729.97;;;6.05;52.05
76024;BME280;64719;52.124;6.226;2023-03-14T16:56:37;100735.97;;;6.00;53.93
76024;BME280;64719;52.124;6.226;2023-03-14T16:59:03;100740.31;;;6.01;53.57
76024;BME280;64719;52.124;6.226;2023-03-14T17:01:30;100749.66;;;5.99;54.23
76024;BME280;64719;52.124;6.226;2023-03-14T17:03:56;100754.41;;;5.97;54.77
76024;BME280;64719;52.124;6.226;2023-03-14T17:06:25;100762.06;;;5.93;55.52
76024;BME280;64719;52.124;6.226;2023-03-14T17:08:52;100769.13;;;5.94;56.03
76024;BME280;64719;52.124;6.226;2023-03-14T17:11:19;100774.06;;;5.91;56.29
76024;BME280;64719;52.124;6.226;2023-03-14T17:13:47;100784.63;;;5.86;56.18
76024;BME280;64719;52.124;6.226;2023-03-14T17:16:13;100778.53;;;5.77;56.11
76024;BME280;64719;52.124;6.226;2023-03-14T17:18:40;100785.59;;;5.72;57.39
76024;BME280;64719;52.124;6.226;2023-03-14T17:21:06;100794.47;;;5.65;56.04
76024;BME280;64719;52.124;6.226;2023-03-14T17:23:34;100797.56;;;5.62;57.63
76024;BME280;64719;52.124;6.226;2023-03-14T17:26:01;100807.28;;;5.57;57.16
76024;BME280;64719;52.124;6.226;2023-03-14T17:28:27;100811.38;;;5.53;57.30
76024;BME280;64719;52.124;6.226;2023-03-14T17:31:03;100813.84;;;5.48;58.28
76024;BME280;64719;52.124;6.226;2023-03-14T17:33:30;100806.38;;;5.43;57.38
76024;BME280;64719;52.124;6.226;2023-03-14T17:35:57;100813.81;;;5.41;56.89
76024;BME280;64719;52.124;6.226;2023-03-14T17:38:23;100822.88;;;5.34;57.82
76024;BME280;64719;52.124;6.226;2023-03-14T17:40:51;100830.31;;;5.32;57.47
76024;BME280;64719;52.124;6.226;2023-03-14T17:43:18;100837.75;;;5.30;58.49
76024;BME280;64719;52.124;6.226;2023-03-14T17:45:44;100839.28;;;5.11;58.92
76024;BME280;64719;52.124;6.226;2023-03-14T17:48:12;100839.63;;;5.02;60.35
76024;BME280;64719;52.124;6.226;2023-03-14T17:50:39;100842.84;;;4.91;60.73
76024;BME280;64719;52.124;6.226;2023-03-14T17:53:05;100856.78;;;5.01;60.54
76024;BME280;64719;52.124;6.226;2023-03-14T17:55:32;100854.03;;;4.94;60.59
76024;BME280;64719;52.124;6.226;2023-03-14T17:57:58;100861.72;;;4.97;60.43
76024;BME280;64719;52.124;6.226;2023-03-14T18:00:26;100866.50;;;5.02;60.77
76024;BME280;64719;52.124;6.226;2023-03-14T18:02:53;100872.91;;;5.01;61.78
76024;BME280;64719;52.124;6.226;2023-03-14T18:05:21;100876.69;;;5.06;59.95
76024;BME280;64719;52.124;6.226;2023-03-14T18:07:47;100879.16;;;5.08;60.14
76024;BME280;64719;52.124;6.226;2023-03-14T18:10:14;100879.88;;;4.95;60.74
76024;BME280;64719;52.124;6.226;2023-03-14T18:12:41;100888.25;;;4.79;61.84
76024;BME280;64719;52.124;6.226;2023-03-14T18:15:09;100893.50;;;4.66;62.51
76024;BME280;64719;52.124;6.226;2023-03-14T18:17:37;100891.69;;;4.52;63.54
76024;BME280;64719;52.124;6.226;2023-03-14T18:20:05;100890.16;;;4.43;65.19
76024;BME280;64719;52.124;6.226;2023-03-14T18:22:35;100891.56;;;4.39;63.93
76024;BME280;64719;52.124;6.226;2023-03-14T18:25:01;100901.66;;;4.37;64.09
76024;BME280;64719;52.124;6.226;2023-03-14T18:27:29;100904.59;;;4.21;65.93
76024;BME280;64719;52.124;6.226;2023-03-14T18:29:56;100912.84;;;4.20;65.11
76024;BME280;64719;52.124;6.226;2023-03-14T18:32:22;100925.06;;;4.22;65.08
76024;BME280;64719;52.124;6.226;2023-03-14T18:34:49;100929.63;;;4.07;64.91
76024;BME280;64719;52.124;6.226;2023-03-14T18:37:15;100933.34;;;4.06;65.24
76024;BME280;64719;52.124;6.226;2023-03-14T18:39:43;100935.44;;;3.96;65.99
76024;BME280;64719;52.124;6.226;2023-03-14T18:42:10;100943.88;;;3.93;66.33
76024;BME280;64719;52.124;6.226;2023-03-14T18:44:36;100944.00;;;3.85;66.93
76024;BME280;64719;52.124;6.226;2023-03-14T18:47:03;100956.19;;;3.88;67.16
76024;BME280;64719;52.124;6.226;2023-03-14T18:49:29;100968.59;;;4.03;66.72
76024;BME280;64719;52.124;6.226;2023-03-14T18:51:58;100963.59;;;4.15;66.46
76024;BME280;64719;52.124;6.226;2023-03-14T18:54:24;100974.28;;;4.29;65.90
76024;BME280;64719;52.124;6.226;2023-03-14T18:56:52;100972.34;;;4.38;65.26
76024;BME280;64719;52.124;6.226;2023-03-14T18:59:19;100970.59;;;4.30;65.32
76024;BME280;64719;52.124;6.226;2023-03-14T19:01:46;100980.59;;;4.36;65.96
76024;BME280;64719;52.124;6.226;2023-03-14T19:04:13;100979.03;;;4.27;66.63
76024;BME280;64719;52.124;6.226;2023-03-14T19:06:39;100991.53;;;4.20;65.85
76024;BME280;64719;52.124;6.226;2023-03-14T19:09:06;100985.03;;;4.29;65.36
76024;BME280;64719;52.124;6.226;2023-03-14T19:11:33;100988.75;;;4.28;65.29
76024;BME280;64719;52.124;6.226;2023-03-14T19:14:01;100994.34;;;4.12;66.84
76024;BME280;64719;52.124;6.226;2023-03-14T19:16:28;101000.34;;;4.00;67.12
76024;BME280;64719;52.124;6.226;2023-03-14T19:18:54;101000.81;;;3.89;67.62
76024;BME280;64719;52.124;6.226;2023-03-14T19:21:27;100998.78;;;3.91;67.36
76024;BME280;64719;52.124;6.226;2023-03-14T19:23:54;101003.94;;;3.77;67.99
76024;BME280;64719;52.124;6.226;2023-03-14T19:26:20;101000.22;;;3.64;68.52
76024;BME280;64719;52.124;6.226;2023-03-14T19:28:48;101004.78;;;3.63;68.46
76024;BME280;64719;52.124;6.226;2023-03-14T19:31:18;101010.03;;;3.57;68.62
76024;BME280;64719;52.124;6.226;2023-03-14T19:33:45;101015.38;;;3.42;69.59
76024;BME280;64719;52.124;6.226;2023-03-14T19:36:19;101013.28;;;3.30;70.43
76024;BME280;64719;52.124;6.226;2023-03-14T19:38:46;101014.72;;;3.18;71.04
76024;BME280;64719;52.124;6.226;2023-03-14T19:41:13;101020.50;;;3.07;71.21
76024;BME280;64719;52.124;6.226;2023-03-14T19:43:39;101024.56;;;3.03;71.62
76024;BME280;64719;52.124;6.226;2023-03-14T19:46:06;101020.16;;;3.10;71.95
76024;BME280;64719;52.124;6.226;2023-03-14T19:48:33;101027.59;;;3.00;71.64
76024;BME280;64719;52.124;6.226;2023-03-14T19:51:01;101030.75;;;2.81;72.18
76024;BME280;64719;52.124;6.226;2023-03-14T19:53:28;101028.78;;;2.75;72.90
76024;BME280;64719;52.124;6.226;2023-03-14T19:55:55;101031.69;;;2.65;74.56
76024;BME280;64719;52.124;6.226;2023-03-14T19:58:22;101030.09;;;2.79;73.99
76024;BME280;64719;52.124;6.226;2023-03-14T20:00:49;101014.34;;;2.53;74.63
76024;BME280;64719;52.124;6.226;2023-03-14T20:03:16;101020.09;;;2.34;75.72
76024;BME280;64719;52.124;6.226;2023-03-14T20:05:43;101021.13;;;2.33;74.93
76024;BME280;64719;52.124;6.226;2023-03-14T20:08:10;101027.91;;;2.13;75.67
76024;BME280;64719;52.124;6.226;2023-03-14T20:10:37;101023.81;;;1.95;76.75
76024;BME280;64719;52.124;6.226;2023-03-14T20:13:03;101033.53;;;1.79;77.18
76024;BME280;64719;52.124;6.226;2023-03-14T20:15:30;101026.66;;;1.77;78.45
76024;BME280;64719;52.124;6.226;2023-03-14T20:17:56;101037.56;;;1.67;79.19
76024;BME280;64719;52.124;6.226;2023-03-14T20:20:23;101039.91;;;1.62;79.23
76024;BME280;64719;52.124;6.226;2023-03-14T20:22:52;101041.59;;;1.55;79.80
76024;BME280;64719;52.124;6.226;2023-03-14T20:25:19;101040.88;;;1.69;80.27
76024;BME280;64719;52.124;6.226;2023-03-14T20:27:48;101040.06;;;1.61;80.51
76024;BME280;64719;52.124;6.226;2023-03-14T20:30:17;101040.75;;;1.55;80.71
76024;BME280;64719;52.124;6.226;2023-03-14T20:32:46;101045.44;;;1.45;80.77
76024;BME280;64719;52.124;6.226;2023-03-14T20:35:14;101053.81;;;1.34;81.86
76024;BME280;64719;52.124;6.226;2023-03-14T20:37:48;101051.13;;;1.34;81.72
76024;BME280;64719;52.124;6.226;2023-03-14T20:40:16;101051.13;;;1.42;81.39
76024;BME280;64719;52.124;6.226;2023-03-14T20:42:43;101054.63;;;1.50;80.18
76024;BME280;64719;52.124;6.226;2023-03-14T20:45:10;101050.97;;;1.43;80.02
76024;BME280;64719;52.124;6.226;2023-03-14T20:47:36;101053.81;;;1.42;81.06
76024;BME280;64719;52.124;6.226;2023-03-14T20:50:04;101062.81;;;1.41;80.33
76024;BME280;64719;52.124;6.226;2023-03-14T20:52:31;101063.84;;;1.48;80.13
76024;BME280;64719;52.124;6.226;2023-03-14T20:54:57;101063.00;;;1.55;79.73
76024;BME280;64719;52.124;6.226;2023-03-14T20:57:25;101059.78;;;1.68;79.26
76024;BME280;64719;52.124;6.226;2023-03-14T20:59:52;101067.13;;;1.74;78.42
76024;BME280;64719;52.124;6.226;2023-03-14T21:02:18;101059.28;;;1.80;78.02
76024;BME280;64719;52.124;6.226;2023-03-14T21:04:45;101071.97;;;1.95;77.49
76024;BME280;64719;52.124;6.226;2023-03-14T21:07:12;101080.78;;;2.03;77.21
76024;BME280;64719;52.124;6.226;2023-03-14T21:09:38;101078.53;;;2.31;76.62
76024;BME280;64719;52.124;6.226;2023-03-14T21:12:05;101074.31;;;2.44;75.43
76024;BME280;64719;52.124;6.226;2023-03-14T21:14:33;101082.44;;;2.51;75.15
76024;BME280;64719;52.124;6.226;2023-03-14T21:16:59;101091.69;;;2.40;75.67
76024;BME280;64719;52.124;6.226;2023-03-14T21:19:26;101098.41;;;2.36;76.18
76024;BME280;64719;52.124;6.226;2023-03-14T21:21:59;101095.56;;;2.46;76.49
76024;BME280;64719;52.124;6.226;2023-03-14T21:24:26;101095.50;;;2.54;76.22
76024;BME280;64719;52.124;6.226;2023-03-14T21:26:53;101087.09;;;2.65;76.03
76024;BME280;64719;52.124;6.226;2023-03-14T21:29:20;101085.75;;;2.69;75.82
76024;BME280;64719;52.124;6.226;2023-03-14T21:31:49;101082.72;;;2.72;77.21
76024;BME280;64719;52.124;6.226;2023-03-14T21:34:16;101077.91;;;2.59;77.94
76024;BME280;64719;52.124;6.226;2023-03-14T21:36:45;101082.44;;;2.59;78.64
76024;BME280;64719;52.124;6.226;2023-03-14T21:39:11;101097.44;;;2.68;79.42
76024;BME280;64719;52.124;6.226;2023-03-14T21:41:38;101093.91;;;2.75;80.42
76024;BME280;64719;52.124;6.226;2023-03-14T21:44:05;101095.34;;;2.86;81.41
76024;BME280;64719;52.124;6.226;2023-03-14T21:46:31;101098.50;;;2.97;82.09
76024;BME280;64719;52.124;6.226;2023-03-14T21:49:01;101098.56;;;3.12;82.18
76024;BME280;64719;52.124;6.226;2023-03-14T21:51:28;101105.34;;;3.22;81.90
76024;BME280;64719;52.124;6.226;2023-03-14T21:53:55;101107.69;;;3.25;82.06
76024;BME280;64719;52.124;6.226;2023-03-14T21:56:22;101102.13;;;3.27;82.25
76024;BME280;64719;52.124;6.226;2023-03-14T21:58:51;101102.13;;;3.27;81.94
76024;BME280;64719;52.124;6.226;2023-03-14T22:01:20;101099.31;;;3.20;82.21
76024;BME280;64719;52.124;6.226;2023-03-14T22:03:47;101105.03;;;3.17;81.87
76024;BME280;64719;52.124;6.226;2023-03-14T22:06:15;101104.41;;;3.15;82.04
76024;BME280;64719;52.124;6.226;2023-03-14T22:08:42;101101.28;;;3.04;82.03
76024;BME280;64719;52.124;6.226;2023-03-14T22:11:08;101105.31;;;3.00;81.76
76024;BME280;64719;52.124;6.226;2023-03-14T22:13:35;101108.09;;;2.84;82.12
76024;BME280;64719;52.124;6.226;2023-03-14T22:16:03;101106.84;;;2.72;82.72
76024;BME280;64719;52.124;6.226;2023-03-14T22:18:30;101105.50;;;2.68;83.14